Terminal Aerodrome Forecast
Issued by NWS

Home | Current Version | Previous Version | Text Only | Print | Product List | Glossary Off
Versions: 1 2 3 4 5 6 7 8 9 10 11 12 13 14 15 16 17 18 19

204
FTUS43 KTOP 191700 AAC
TAFMHK
TAF AMD
KMHK 191700Z 1917/2012 16010KT P6SM OVC007
     FM191900 18011KT P6SM BKN012
     FM192200 18011KT P6SM BKN025
     FM200200 17010KT 4SM BR OVC011
     FM200600 18009KT 3SM BR OVC008=

USA.gov is the U.S. government's official web portal to all federal, state and local government web resources and services.